Time;durP1;ratioP1;P1;durP2;ratioP2;P2;SDS_P1;SDS_P2;PMS_P1;PMS_P2;Temp;Humidity;BMP_temperature;BMP_pressure;BME280_temperature;BME280_humidity;BME280_pressure;Samples;Min_cycle;Max_cycle;Signal;HPM_P1;HPM_P2
2022/10/09 00:01:05;;;;;;;;;;;15.20;99.90;;;;;;4969146;28;19916;-79
2022/10/09 00:03:33;;;;;;;;;;;15.30;99.90;;;;;;4968603;28;20332;-79
2022/10/09 00:05:59;;;;;;;;;;;15.40;99.90;;;;;;4968757;28;19918;-81
2022/10/09 00:08:26;;;;;;;;;;;15.60;99.90;;;;;;4969307;28;19916;-80
2022/10/09 00:10:53;;;;;;;;;;;15.60;99.90;;;;;;4968664;28;19910;-80
2022/10/09 00:13:20;;;;;;;;;;;15.70;99.80;;;;;;4969582;28;19918;-81
2022/10/09 00:15:46;;;;;;;;;;;15.70;99.90;;;;;;4962258;28;19962;-79
2022/10/09 00:18:14;;;;;;;;;;;15.80;99.60;;;;;;4949270;28;19926;-81
2022/10/09 00:20:42;;;;;;;;;;;15.80;99.30;;;;;;4950481;28;20443;-79
2022/10/09 00:23:09;;;;;;;;;;;15.90;99.00;;;;;;4952576;28;19964;-82
2022/10/09 00:25:36;;;;;;;;;;;15.90;99.00;;;;;;4952840;28;20291;-82
2022/10/09 00:28:03;;;;;;;;;;;16.00;98.80;;;;;;4952480;28;19930;-78
2022/10/09 00:30:30;;;;;;;;;;;16.00;99.00;;;;;;4994535;28;19909;-76
2022/10/09 00:33:01;;;;;;;;;;;16.30;98.90;;;;;;5036412;28;20282;-76
2022/10/09 00:35:28;;;;;;;;;;;16.40;98.70;;;;;;4959207;28;19910;-75
2022/10/09 00:37:54;;;;;;;;;;;16.50;98.30;;;;;;4952452;28;19964;-74
2022/10/09 00:40:21;;;;;;;;;;;16.50;98.10;;;;;;4952697;28;19918;-76
2022/10/09 00:42:54;;;;;;;;;;;16.70;98.60;;;;;;4952694;28;20359;-74
2022/10/09 00:45:24;;;;;;;;;;;16.90;98.20;;;;;;4952364;28;20321;-74
2022/10/09 00:47:53;;;;;;;;;;;17.10;97.60;;;;;;4952353;28;20001;-74
2022/10/09 00:50:34;;;;;;;;;;;17.30;97.30;;;;;;4952503;28;20286;-72
2022/10/09 00:53:02;;;;;;;;;;;17.40;96.90;;;;;;4952350;28;20389;-72
2022/10/09 00:55:29;;;;;;;;;;;17.40;97.20;;;;;;4952493;28;19997;-73
2022/10/09 00:57:58;;;;;;;;;;;17.40;96.80;;;;;;4951986;28;20202;-78
2022/10/09 01:00:25;;;;;;;;;;;17.50;96.40;;;;;;4952367;28;19911;-77
2022/10/09 01:02:53;;;;;;;;;;;17.50;95.90;;;;;;4966888;28;20032;-75
2022/10/09 01:05:23;;;;;;;;;;;17.60;96.20;;;;;;4952108;28;19997;-74
2022/10/09 01:07:59;;;;;;;;;;;17.60;96.00;;;;;;4952113;28;20363;-73
2022/10/09 01:10:36;;;;;;;;;;;17.70;95.80;;;;;;4952185;28;20377;-75
2022/10/09 01:13:22;;;;;;;;;;;17.60;95.70;;;;;;4970517;28;19927;-72
2022/10/09 01:15:49;;;;;;;;;;;17.70;95.10;;;;;;4933020;28;20239;-74
2022/10/09 01:18:34;;;;;;;;;;;17.70;95.50;;;;;;4949595;28;20005;-76
2022/10/09 01:21:07;;;;;;;;;;;17.80;96.10;;;;;;4963849;28;19918;-73
2022/10/09 01:23:40;;;;;;;;;;;17.90;95.10;;;;;;4971139;28;20005;-75
2022/10/09 01:26:07;;;;;;;;;;;18.00;94.90;;;;;;4971405;28;20015;-75
2022/10/09 01:28:35;;;;;;;;;;;18.20;95.00;;;;;;4971266;28;19917;-74
2022/10/09 01:31:03;;;;;;;;;;;18.20;94.90;;;;;;4963554;28;19961;-76
2022/10/09 01:33:30;;;;;;;;;;;18.30;94.30;;;;;;4953270;28;19961;-79
2022/10/09 01:35:59;;;;;;;;;;;18.40;94.90;;;;;;4970863;28;20366;-76
2022/10/09 01:38:26;;;;;;;;;;;18.60;94.20;;;;;;4970435;28;19956;-75
2022/10/09 01:40:53;;;;;;;;;;;18.60;94.60;;;;;;4970655;28;19947;-74
2022/10/09 01:43:20;;;;;;;;;;;18.80;94.00;;;;;;4971145;28;20347;-74
2022/10/09 01:45:47;;;;;;;;;;;18.80;94.10;;;;;;4971063;28;19918;-74
2022/10/09 01:48:22;;;;;;;;;;;18.90;93.40;;;;;;4970688;28;19975;-78
2022/10/09 01:50:55;;;;;;;;;;;18.90;93.80;;;;;;4970442;28;20008;-74
2022/10/09 01:53:23;;;;;;;;;;;18.80;93.50;;;;;;4970276;28;19922;-74
2022/10/09 01:56:08;;;;;;;;;;;18.80;93.80;;;;;;4970369;28;19910;-72
2022/10/09 01:58:37;;;;;;;;;;;18.80;93.90;;;;;;4970861;28;20001;-76
2022/10/09 02:01:09;;;;;;;;;;;18.90;93.30;;;;;;5036091;28;19912;-76
2022/10/09 02:03:37;;;;;;;;;;;18.80;92.90;;;;;;5071884;28;19916;-76
2022/10/09 02:06:04;;;;;;;;;;;18.80;92.80;;;;;;5072363;28;20427;-74
2022/10/09 02:08:32;;;;;;;;;;;18.50;92.80;;;;;;5072592;28;19916;-73
2022/10/09 02:11:01;;;;;;;;;;;18.30;93.60;;;;;;5072386;28;20404;-72
2022/10/09 02:13:28;;;;;;;;;;;18.10;94.40;;;;;;5072045;28;20011;-75
2022/10/09 02:15:59;;;;;;;;;;;17.80;95.40;;;;;;5071294;28;19909;-78
2022/10/09 02:18:37;;;;;;;;;;;17.60;95.90;;;;;;5070852;28;19927;-77
2022/10/09 02:21:09;;;;;;;;;;;17.30;96.00;;;;;;5071758;28;20337;-76
2022/10/09 02:23:37;;;;;;;;;;;17.10;96.50;;;;;;5072268;28;19919;-75
2022/10/09 02:26:04;;;;;;;;;;;16.90;96.90;;;;;;5072080;28;19936;-75
2022/10/09 02:28:31;;;;;;;;;;;16.80;97.10;;;;;;5054013;28;19966;-75
2022/10/09 02:31:02;;;;;;;;;;;16.80;97.40;;;;;;5072215;28;19908;-73
2022/10/09 02:33:33;;;;;;;;;;;16.90;97.70;;;;;;5049064;28;20430;-76
2022/10/09 02:36:00;;;;;;;;;;;17.10;96.80;;;;;;5035585;28;19910;-76
2022/10/09 02:38:27;;;;;;;;;;;17.20;95.90;;;;;;4970460;28;20037;-75
2022/10/09 02:41:00;;;;;;;;;;;17.30;95.40;;;;;;5027752;28;19912;-75
2022/10/09 02:43:27;;;;;;;;;;;17.40;95.00;;;;;;5066130;28;19912;-75
2022/10/09 02:45:54;;;;;;;;;;;17.50;95.50;;;;;;4969866;28;20282;-75
2022/10/09 02:48:21;;;;;;;;;;;17.50;95.60;;;;;;4970484;28;19929;-74
2022/10/09 02:50:47;;;;;;;;;;;17.60;95.20;;;;;;4970167;28;20362;-75
2022/10/09 02:53:14;;;;;;;;;;;17.80;95.30;;;;;;4970210;28;20366;-75
2022/10/09 02:55:41;;;;;;;;;;;17.90;94.70;;;;;;4969411;28;19993;-74
2022/10/09 02:58:07;;;;;;;;;;;17.80;94.70;;;;;;4970097;28;19925;-75
2022/10/09 03:00:34;;;;;;;;;;;17.70;94.90;;;;;;5026833;28;19908;-74
2022/10/09 03:03:24;;;;;;;;;;;17.50;95.20;;;;;;5071498;28;19989;-77
2022/10/09 03:06:04;;;;;;;;;;;17.40;95.40;;;;;;5038522;28;19921;-76
2022/10/09 03:08:31;;;;;;;;;;;17.20;95.90;;;;;;5052224;28;20399;-74
2022/10/09 03:10:58;;;;;;;;;;;17.20;96.30;;;;;;4972990;28;19968;-75
2022/10/09 03:13:25;;;;;;;;;;;17.20;96.80;;;;;;5035339;28;20019;-74
2022/10/09 03:15:51;;;;;;;;;;;17.10;96.40;;;;;;4969768;28;19917;-73
2022/10/09 03:18:22;;;;;;;;;;;17.10;96.10;;;;;;4969484;28;19923;-75
2022/10/09 03:20:49;;;;;;;;;;;17.10;96.40;;;;;;4968986;28;19937;-72
2022/10/09 03:23:16;;;;;;;;;;;17.10;95.70;;;;;;4969381;28;20359;-73
2022/10/09 03:25:42;;;;;;;;;;;17.20;96.20;;;;;;4952097;28;19918;-74
2022/10/09 03:28:09;;;;;;;;;;;17.20;95.90;;;;;;4969587;28;19910;-73
2022/10/09 03:30:39;;;;;;;;;;;17.30;96.00;;;;;;5014065;28;20373;-76
2022/10/09 03:33:06;;;;;;;;;;;17.30;96.20;;;;;;5070246;28;19921;-77
2022/10/09 03:35:33;;;;;;;;;;;17.30;96.00;;;;;;4978914;28;19910;-76
2022/10/09 03:37:59;;;;;;;;;;;17.40;95.90;;;;;;4969778;28;19956;-75
2022/10/09 03:40:26;;;;;;;;;;;17.60;95.70;;;;;;4952211;28;19914;-76
2022/10/09 03:42:53;;;;;;;;;;;17.80;94.90;;;;;;4969265;28;19911;-74
2022/10/09 03:45:19;;;;;;;;;;;18.00;94.70;;;;;;4966540;28;19918;-76
2022/10/09 03:47:46;;;;;;;;;;;18.20;94.50;;;;;;4969650;28;20333;-75
2022/10/09 03:50:13;;;;;;;;;;;18.60;93.80;;;;;;4969063;28;19910;-73
2022/10/09 03:52:39;;;;;;;;;;;19.50;93.10;;;;;;4969371;28;19922;-74
2022/10/09 03:55:06;;;;;;;;;;;20.10;92.80;;;;;;4968575;28;19910;-75
2022/10/09 03:57:33;;;;;;;;;;;20.60;91.80;;;;;;4969011;28;20485;-74
2022/10/09 04:00:00;;;;;;;;;;;21.50;89.90;;;;;;4971194;28;19915;-78
2022/10/09 04:02:26;;;;;;;;;;;22.40;88.30;;;;;;5070750;28;19912;-76
2022/10/09 04:04:53;;;;;;;;;;;23.40;84.90;;;;;;5070298;28;20391;-82
2022/10/09 04:07:20;;;;;;;;;;;24.20;85.20;;;;;;5053318;28;19915;-80
2022/10/09 04:09:46;;;;;;;;;;;24.90;82.30;;;;;;5071109;28;20357;-76
2022/10/09 04:12:13;;;;;;;;;;;25.20;80.70;;;;;;5070761;28;20377;-77
2022/10/09 04:14:40;;;;;;;;;;;25.40;80.10;;;;;;5070128;28;20010;-81
2022/10/09 04:17:06;;;;;;;;;;;25.40;79.80;;;;;;5070283;28;19920;-76
2022/10/09 04:19:33;;;;;;;;;;;25.50;80.00;;;;;;5070677;28;19909;-78
2022/10/09 04:21:59;;;;;;;;;;;25.60;78.00;;;;;;5070749;28;19915;-74
2022/10/09 04:24:26;;;;;;;;;;;26.10;77.10;;;;;;5070734;28;19909;-80
2022/10/09 04:26:53;;;;;;;;;;;25.90;74.80;;;;;;5070362;28;19915;-79
2022/10/09 04:29:19;;;;;;;;;;;24.60;76.50;;;;;;5070254;28;20424;-80
2022/10/09 04:31:46;;;;;;;;;;;23.30;79.20;;;;;;5069770;28;19912;-76
2022/10/09 04:34:13;;;;;;;;;;;22.60;82.20;;;;;;5069894;28;19916;-74
2022/10/09 04:36:39;;;;;;;;;;;21.90;82.10;;;;;;5070123;28;19954;-74
2022/10/09 04:39:06;;;;;;;;;;;21.60;84.80;;;;;;5040650;28;19908;-73
2022/10/09 04:41:33;;;;;;;;;;;21.30;83.80;;;;;;4962309;28;19956;-74
2022/10/09 04:43:59;;;;;;;;;;;20.80;85.60;;;;;;4967875;28;20083;-78
2022/10/09 04:46:26;;;;;;;;;;;20.50;88.30;;;;;;5035023;28;20290;-77
2022/10/09 04:48:53;;;;;;;;;;;20.60;86.20;;;;;;4968357;28;19933;-78
2022/10/09 04:51:19;;;;;;;;;;;20.90;86.30;;;;;;4967388;28;19910;-76
2022/10/09 04:53:46;;;;;;;;;;;21.00;85.30;;;;;;4967231;28;19914;-76
2022/10/09 04:56:14;;;;;;;;;;;20.60;87.30;;;;;;4967388;28;20553;-78
2022/10/09 04:58:41;;;;;;;;;;;20.70;87.60;;;;;;4967469;28;19997;-79
2022/10/09 05:01:10;;;;;;;;;;;20.70;87.00;;;;;;5032659;28;19908;-75
2022/10/09 05:03:37;;;;;;;;;;;21.10;86.70;;;;;;5069110;28;19948;-77
2022/10/09 05:06:04;;;;;;;;;;;21.90;85.10;;;;;;5069400;28;19908;-76
2022/10/09 05:08:31;;;;;;;;;;;22.60;83.20;;;;;;5072772;28;19908;-76
2022/10/09 05:11:02;;;;;;;;;;;23.40;81.40;;;;;;5073308;28;19922;-77
2022/10/09 05:13:32;;;;;;;;;;;23.60;81.20;;;;;;5073533;28;20011;-73
2022/10/09 05:16:02;;;;;;;;;;;23.20;80.60;;;;;;5074053;28;19908;-72
2022/10/09 05:18:29;;;;;;;;;;;22.50;83.50;;;;;;5073757;28;19927;-75
2022/10/09 05:20:56;;;;;;;;;;;21.80;83.40;;;;;;5072635;28;20353;-75
2022/10/09 05:23:22;;;;;;;;;;;21.00;85.90;;;;;;5073568;28;19916;-77
2022/10/09 05:25:56;;;;;;;;;;;20.30;87.70;;;;;;5074064;28;19913;-75
2022/10/09 05:28:22;;;;;;;;;;;19.90;88.80;;;;;;5073663;28;19912;-77
2022/10/09 05:30:49;;;;;;;;;;;19.40;89.70;;;;;;5073346;28;20261;-74
2022/10/09 05:33:16;;;;;;;;;;;19.10;90.50;;;;;;5073352;28;19920;-75
2022/10/09 05:35:53;;;;;;;;;;;18.90;91.20;;;;;;5055628;28;19908;-78
2022/10/09 05:38:20;;;;;;;;;;;18.90;91.80;;;;;;5073740;28;19908;-74
2022/10/09 05:40:51;;;;;;;;;;;18.80;91.10;;;;;;5073655;28;19909;-75
2022/10/09 05:43:18;;;;;;;;;;;18.80;91.70;;;;;;5073112;28;19955;-76
2022/10/09 05:45:44;;;;;;;;;;;18.70;91.60;;;;;;5072992;28;19912;-74
2022/10/09 05:48:11;;;;;;;;;;;18.70;91.80;;;;;;5073277;28;19909;-75
2022/10/09 05:50:38;;;;;;;;;;;18.80;92.20;;;;;;5055296;28;19915;-77
2022/10/09 05:53:04;;;;;;;;;;;19.30;91.90;;;;;;5056181;28;20372;-76
2022/10/09 05:55:31;;;;;;;;;;;20.40;90.30;;;;;;5072723;28;19975;-76
2022/10/09 05:57:58;;;;;;;;;;;20.70;86.50;;;;;;5072772;28;20281;-78
2022/10/09 06:00:24;;;;;;;;;;;20.70;86.10;;;;;;5072715;28;19919;-79
2022/10/09 06:02:51;;;;;;;;;;;20.60;87.70;;;;;;5054652;28;20404;-77
2022/10/09 06:05:22;;;;;;;;;;;20.30;87.50;;;;;;5072883;28;19912;-80
2022/10/09 06:07:49;;;;;;;;;;;20.00;89.20;;;;;;5013187;28;19915;-79
2022/10/09 06:10:16;;;;;;;;;;;20.00;88.00;;;;;;4979083;28;19914;-80
2022/10/09 06:12:43;;;;;;;;;;;20.00;88.50;;;;;;4968904;28;20393;-79
2022/10/09 06:15:09;;;;;;;;;;;20.00;88.30;;;;;;4969297;28;19910;-82
2022/10/09 06:17:36;;;;;;;;;;;20.10;87.50;;;;;;4969061;28;19922;-82
2022/10/09 06:20:03;;;;;;;;;;;20.10;88.10;;;;;;5035746;28;19914;-80
2022/10/09 06:22:29;;;;;;;;;;;20.10;88.40;;;;;;4968984;28;20004;-82
2022/10/09 06:24:56;;;;;;;;;;;20.00;89.50;;;;;;4969421;28;19910;-79
2022/10/09 06:27:23;;;;;;;;;;;19.80;89.90;;;;;;4969759;28;19917;-80
2022/10/09 06:29:54;;;;;;;;;;;19.80;90.00;;;;;;5037357;28;19908;-79
2022/10/09 06:32:21;;;;;;;;;;;19.80;89.50;;;;;;5072095;28;20079;-79
2022/10/09 06:34:47;;;;;;;;;;;19.70;89.30;;;;;;5072503;28;19912;-80
2022/10/09 06:37:15;;;;;;;;;;;19.60;89.40;;;;;;5054662;28;19954;-81
2022/10/09 06:39:45;;;;;;;;;;;19.50;88.50;;;;;;5072273;28;19959;-80
2022/10/09 06:42:12;;;;;;;;;;;19.60;89.60;;;;;;5036349;28;19910;-75
2022/10/09 06:44:40;;;;;;;;;;;20.00;87.70;;;;;;4970039;28;19914;-77
2022/10/09 06:47:07;;;;;;;;;;;20.70;87.80;;;;;;4970693;28;19959;-77
2022/10/09 06:49:33;;;;;;;;;;;21.20;86.30;;;;;;4970768;28;20402;-75
2022/10/09 06:52:02;;;;;;;;;;;21.70;84.10;;;;;;4970658;28;19921;-82
2022/10/09 06:54:29;;;;;;;;;;;22.10;82.20;;;;;;4970289;28;19997;-78
2022/10/09 06:56:56;;;;;;;;;;;22.30;82.80;;;;;;5037065;28;19910;-78
2022/10/09 06:59:23;;;;;;;;;;;22.60;82.70;;;;;;5018181;28;19987;-84
2022/10/09 07:01:50;;;;;;;;;;;22.70;80.70;;;;;;5053833;28;20288;-82
2022/10/09 07:04:17;;;;;;;;;;;22.70;81.20;;;;;;5071972;28;19916;-78
2022/10/09 07:06:46;;;;;;;;;;;22.80;80.10;;;;;;5071911;28;19916;-82
2022/10/09 07:09:14;;;;;;;;;;;22.40;81.20;;;;;;5071826;28;19908;-79
2022/10/09 07:11:42;;;;;;;;;;;22.10;80.60;;;;;;5071846;28;19923;-80
2022/10/09 07:14:10;;;;;;;;;;;21.80;82.40;;;;;;5071719;28;19912;-78
2022/10/09 07:16:38;;;;;;;;;;;21.30;82.00;;;;;;5030973;28;20006;-73
2022/10/09 07:19:10;;;;;;;;;;;20.80;83.50;;;;;;4971612;28;19918;-77
2022/10/09 07:21:37;;;;;;;;;;;20.20;84.50;;;;;;4970028;28;19916;-79
2022/10/09 07:24:04;;;;;;;;;;;19.70;86.20;;;;;;5012664;28;19945;-76
2022/10/09 07:26:34;;;;;;;;;;;19.20;87.00;;;;;;5070531;28;19955;-77
2022/10/09 07:29:03;;;;;;;;;;;18.80;88.70;;;;;;5038356;28;19910;-82
2022/10/09 07:31:30;;;;;;;;;;;18.40;90.30;;;;;;4969409;28;20267;-79
2022/10/09 07:33:57;;;;;;;;;;;17.90;90.70;;;;;;5036297;28;19914;-80
2022/10/09 07:36:24;;;;;;;;;;;17.50;91.30;;;;;;5035763;28;19953;-78
2022/10/09 07:38:52;;;;;;;;;;;17.40;91.80;;;;;;5035551;28;19957;-77
2022/10/09 07:41:21;;;;;;;;;;;17.20;92.10;;;;;;4969689;28;19955;-77
2022/10/09 07:43:48;;;;;;;;;;;17.00;92.60;;;;;;4969270;28;20007;-76
2022/10/09 07:46:15;;;;;;;;;;;16.80;92.80;;;;;;5036065;28;20377;-77
2022/10/09 07:48:42;;;;;;;;;;;16.70;93.10;;;;;;4969073;28;19950;-77
2022/10/09 07:51:10;;;;;;;;;;;16.60;93.40;;;;;;4969260;28;19910;-77
2022/10/09 07:53:37;;;;;;;;;;;16.50;93.70;;;;;;4969106;28;19914;-76
2022/10/09 07:56:04;;;;;;;;;;;16.40;94.00;;;;;;4987381;28;19909;-78
2022/10/09 07:58:31;;;;;;;;;;;16.40;94.40;;;;;;5071216;28;19995;-79
2022/10/09 08:01:05;;;;;;;;;;;16.20;94.50;;;;;;5071494;28;20288;-78
2022/10/09 08:03:31;;;;;;;;;;;16.20;94.90;;;;;;5071682;28;19908;-79
2022/10/09 08:05:58;;;;;;;;;;;16.00;95.60;;;;;;5071640;28;20376;-79
2022/10/09 08:08:25;;;;;;;;;;;16.00;95.80;;;;;;5071399;28;20272;-78
2022/10/09 08:10:51;;;;;;;;;;;15.90;96.30;;;;;;5070950;28;19948;-79
2022/10/09 08:13:18;;;;;;;;;;;15.90;96.60;;;;;;5030279;28;20001;-78
2022/10/09 08:15:45;;;;;;;;;;;15.90;96.50;;;;;;4965405;28;19918;-77
2022/10/09 08:18:12;;;;;;;;;;;16.00;96.30;;;;;;4968252;28;19928;-77
2022/10/09 08:20:39;;;;;;;;;;;16.10;96.30;;;;;;4969019;28;19910;-79
2022/10/09 08:23:06;;;;;;;;;;;16.10;96.40;;;;;;4996534;28;19948;-80
2022/10/09 08:25:36;;;;;;;;;;;16.20;96.50;;;;;;4987282;28;19945;-73
2022/10/09 08:28:03;;;;;;;;;;;16.20;96.90;;;;;;4969572;28;19911;-75
2022/10/09 08:30:29;;;;;;;;;;;16.20;97.10;;;;;;4969396;28;19997;-74
2022/10/09 08:32:56;;;;;;;;;;;16.20;97.70;;;;;;4968595;28;19918;-71
2022/10/09 08:35:23;;;;;;;;;;;16.20;98.00;;;;;;4969160;28;19960;-74
2022/10/09 08:37:49;;;;;;;;;;;16.30;97.60;;;;;;4969403;28;19910;-77
2022/10/09 08:40:18;;;;;;;;;;;16.20;97.90;;;;;;4969489;28;19917;-79
2022/10/09 08:42:52;;;;;;;;;;;16.20;98.10;;;;;;4973018;28;20358;-77
2022/10/09 08:45:20;;;;;;;;;;;16.20;98.30;;;;;;5046740;28;20417;-80
2022/10/09 08:47:50;;;;;;;;;;;16.20;98.00;;;;;;5056855;28;19913;-80
2022/10/09 08:50:22;;;;;;;;;;;16.10;98.10;;;;;;5068149;28;19909;-79
2022/10/09 08:53:12;;;;;;;;;;;16.20;98.30;;;;;;4971732;28;19922;-79
2022/10/09 08:55:46;;;;;;;;;;;16.20;98.60;;;;;;4972385;28;19910;-81
2022/10/09 08:58:18;;;;;;;;;;;16.10;98.80;;;;;;4972466;28;19963;-80
2022/10/09 09:00:47;;;;;;;;;;;16.20;98.40;;;;;;4971397;28;19911;-77
2022/10/09 09:03:32;;;;;;;;;;;16.10;98.10;;;;;;4979554;28;19917;-74
2022/10/09 09:05:58;;;;;;;;;;;16.10;98.40;;;;;;5038532;28;19911;-74
2022/10/09 09:08:43;;;;;;;;;;;16.10;98.60;;;;;;4971584;28;19911;-76
2022/10/09 09:11:19;;;;;;;;;;;16.10;98.60;;;;;;4971815;28;20270;-81
2022/10/09 09:13:48;;;;;;;;;;;16.10;98.80;;;;;;4980580;28;19963;-75
2022/10/09 09:16:28;;;;;;;;;;;16.10;98.50;;;;;;5073930;28;19916;-80
2022/10/09 09:18:54;;;;;;;;;;;16.00;98.90;;;;;;5073519;28;19960;-78
2022/10/09 09:21:38;;;;;;;;;;;16.00;98.90;;;;;;5073356;28;19964;-78
2022/10/09 09:24:11;;;;;;;;;;;15.90;98.90;;;;;;5072867;28;20413;-79
2022/10/09 09:26:39;;;;;;;;;;;15.80;99.50;;;;;;5058934;28;20024;-76
2022/10/09 09:29:05;;;;;;;;;;;15.80;99.80;;;;;;4970998;28;19910;-77
2022/10/09 09:31:35;;;;;;;;;;;15.80;99.90;;;;;;4971582;28;19972;-76
2022/10/09 09:34:09;;;;;;;;;;;15.70;99.90;;;;;;4971275;28;20013;-77
2022/10/09 09:36:39;;;;;;;;;;;15.60;99.90;;;;;;4971471;28;19985;-75
2022/10/09 09:39:09;;;;;;;;;;;15.60;99.90;;;;;;4971766;28;19945;-75
2022/10/09 09:41:35;;;;;;;;;;;15.60;99.90;;;;;;4971887;28;19910;-76
2022/10/09 09:44:03;;;;;;;;;;;15.50;99.90;;;;;;4991613;28;19913;-76
2022/10/09 09:46:29;;;;;;;;;;;15.50;99.90;;;;;;5073302;28;20368;-79
2022/10/09 09:48:56;;;;;;;;;;;15.50;99.90;;;;;;5073430;28;20449;-77
2022/10/09 09:51:30;;;;;;;;;;;15.40;99.90;;;;;;5073509;28;20288;-77
2022/10/09 09:53:56;;;;;;;;;;;15.50;99.90;;;;;;5071749;28;19912;-81
2022/10/09 09:56:38;;;;;;;;;;;15.40;99.90;;;;;;5073365;28;20024;-78
2022/10/09 09:59:06;;;;;;;;;;;15.40;99.90;;;;;;5054929;28;19960;-78
2022/10/09 10:01:34;;;;;;;;;;;15.10;99.90;;;;;;5072763;28;19944;-78
2022/10/09 10:04:02;;;;;;;;;;;15.20;99.90;;;;;;5054758;28;19909;-78
2022/10/09 10:06:30;;;;;;;;;;;15.10;99.90;;;;;;5073354;28;20276;-76
2022/10/09 10:08:58;;;;;;;;;;;15.10;99.90;;;;;;5072867;28;19916;-79
2022/10/09 10:11:25;;;;;;;;;;;15.00;99.90;;;;;;5054774;28;20281;-78
2022/10/09 10:13:51;;;;;;;;;;;15.00;99.90;;;;;;5072231;28;19913;-78
2022/10/09 10:16:26;;;;;;;;;;;14.90;99.90;;;;;;4971370;28;19910;-78
2022/10/09 10:18:55;;;;;;;;;;;15.00;99.90;;;;;;4970031;28;19914;-79
2022/10/09 10:21:22;;;;;;;;;;;14.90;99.90;;;;;;4969922;28;20256;-76
2022/10/09 10:23:53;;;;;;;;;;;14.90;99.90;;;;;;4971300;28;20310;-75
2022/10/09 10:26:20;;;;;;;;;;;15.00;99.90;;;;;;4971732;28;19917;-75
2022/10/09 10:28:53;;;;;;;;;;;15.00;99.90;;;;;;4971411;28;19956;-75
2022/10/09 10:31:35;;;;;;;;;;;14.90;99.90;;;;;;4971762;28;20366;-78
2022/10/09 10:34:04;;;;;;;;;;;14.80;99.90;;;;;;4970735;28;19910;-75
2022/10/09 10:36:32;;;;;;;;;;;14.80;99.90;;;;;;5037417;28;20355;-76
2022/10/09 10:39:04;;;;;;;;;;;14.80;99.90;;;;;;4971356;28;19918;-77
2022/10/09 10:41:35;;;;;;;;;;;14.80;99.90;;;;;;4970862;28;19918;-76
2022/10/09 10:44:20;;;;;;;;;;;14.80;99.90;;;;;;5036992;28;20006;-77
2022/10/09 10:46:51;;;;;;;;;;;14.80;99.90;;;;;;4968586;28;19917;-75
2022/10/09 10:49:19;;;;;;;;;;;14.70;99.90;;;;;;5063675;28;20039;-79
2022/10/09 10:52:01;;;;;;;;;;;14.70;99.90;;;;;;5071675;28;20440;-79
2022/10/09 10:54:46;;;;;;;;;;;14.70;99.90;;;;;;4991310;28;19954;-79
2022/10/09 10:57:12;;;;;;;;;;;14.70;99.90;;;;;;4970543;28;19910;-76
2022/10/09 10:59:39;;;;;;;;;;;14.70;99.90;;;;;;4970755;28;19910;-77
2022/10/09 11:02:25;;;;;;;;;;;14.70;99.90;;;;;;4970809;28;19917;-77
2022/10/09 11:05:01;;;;;;;;;;;14.60;99.90;;;;;;4969146;28;19910;-76
2022/10/09 11:07:53;;;;;;;;;;;14.60;99.90;;;;;;4970612;28;19960;-77
2022/10/09 11:10:29;;;;;;;;;;;14.60;99.90;;;;;;4972847;28;19906;-77
2022/10/09 11:12:59;;;;;;;;;;;14.60;99.90;;;;;;4986377;28;19939;-76
2022/10/09 11:15:30;;;;;;;;;;;14.50;99.90;;;;;;5071737;28;19931;-75
2022/10/09 11:18:22;;;;;;;;;;;14.50;99.90;;;;;;5071291;28;19920;-76
2022/10/09 11:21:04;;;;;;;;;;;14.60;99.90;;;;;;5066846;28;19913;-78
2022/10/09 11:23:49;;;;;;;;;;;14.60;99.90;;;;;;5071299;28;19915;-77
2022/10/09 11:26:19;;;;;;;;;;;14.70;99.90;;;;;;5071627;28;19952;-76
2022/10/09 11:28:50;;;;;;;;;;;14.70;99.90;;;;;;5071591;28;20365;-79
2022/10/09 11:31:40;;;;;;;;;;;14.70;99.90;;;;;;5054015;28;19909;-79
2022/10/09 11:34:12;;;;;;;;;;;14.70;99.90;;;;;;5058184;28;20380;-76
2022/10/09 11:36:43;;;;;;;;;;;14.60;99.90;;;;;;5071323;28;19947;-75
2022/10/09 11:39:21;;;;;;;;;;;14.60;99.90;;;;;;5071285;28;19962;-75
2022/10/09 11:41:49;;;;;;;;;;;14.70;99.90;;;;;;5071049;28;20288;-76
2022/10/09 11:44:35;;;;;;;;;;;14.70;99.90;;;;;;5071239;28;19955;-77
2022/10/09 11:47:02;;;;;;;;;;;14.60;99.90;;;;;;5070964;28;20414;-77
2022/10/09 11:49:36;;;;;;;;;;;14.60;99.90;;;;;;5071289;28;19939;-78
2022/10/09 11:52:20;;;;;;;;;;;14.60;99.90;;;;;;5070751;28;19916;-77
2022/10/09 11:54:47;;;;;;;;;;;14.60;99.90;;;;;;5071002;28;20404;-77
2022/10/09 11:57:14;;;;;;;;;;;14.60;99.90;;;;;;5071591;28;19961;-77
2022/10/09 11:59:41;;;;;;;;;;;14.60;99.90;;;;;;5053263;28;19915;-75
2022/10/09 12:02:20;;;;;;;;;;;14.60;99.90;;;;;;5071172;28;19927;-78
2022/10/09 12:04:47;;;;;;;;;;;14.70;99.90;;;;;;5070915;28;19909;-74
2022/10/09 12:07:13;;;;;;;;;;;14.70;99.90;;;;;;5013048;28;19910;-76
2022/10/09 12:09:47;;;;;;;;;;;14.60;99.90;;;;;;5069770;28;19949;-78
2022/10/09 12:12:17;;;;;;;;;;;14.60;99.90;;;;;;4969399;28;19972;-76
2022/10/09 12:14:44;;;;;;;;;;;14.60;99.90;;;;;;4969123;28;20259;-76
2022/10/09 12:17:30;;;;;;;;;;;14.60;99.90;;;;;;4974440;28;19929;-78
2022/10/09 12:20:06;;;;;;;;;;;14.60;99.90;;;;;;4958372;28;19914;-78
2022/10/09 12:22:40;;;;;;;;;;;14.50;99.90;;;;;;4975804;28;19960;-77
2022/10/09 12:25:39;;;;;;;;;;;14.40;99.90;;;;;;4976120;28;19917;-76
2022/10/09 12:28:12;;;;;;;;;;;14.20;99.90;;;;;;5007875;28;19917;-75
2022/10/09 12:30:39;;;;;;;;;;;14.10;99.90;;;;;;4975630;28;19910;-77
2022/10/09 12:33:12;;;;;;;;;;;14.00;99.90;;;;;;4998012;28;19916;-76
2022/10/09 12:35:41;;;;;;;;;;;14.00;99.90;;;;;;5077924;28;19909;-76
2022/10/09 12:38:27;;;;;;;;;;;13.90;99.90;;;;;;5077950;28;20372;-77
2022/10/09 12:40:57;;;;;;;;;;;13.90;99.90;;;;;;5077704;28;19996;-76
2022/10/09 12:43:23;;;;;;;;;;;13.70;99.90;;;;;;5077244;28;19915;-76
2022/10/09 12:45:52;;;;;;;;;;;13.70;99.90;;;;;;5077089;28;19908;-75
2022/10/09 12:48:24;;;;;;;;;;;13.60;99.90;;;;;;5077105;28;19909;-78
2022/10/09 12:50:51;;;;;;;;;;;13.60;99.90;;;;;;5077559;28;19915;-76
2022/10/09 12:53:22;;;;;;;;;;;13.60;99.90;;;;;;5076931;28;19965;-77
2022/10/09 12:55:50;;;;;;;;;;;13.50;99.90;;;;;;5059553;28;20276;-75
2022/10/09 12:58:28;;;;;;;;;;;13.50;99.90;;;;;;5035970;28;19921;-76
2022/10/09 13:00:56;;;;;;;;;;;13.50;99.90;;;;;;4975580;28;20039;-77
2022/10/09 13:03:26;;;;;;;;;;;13.40;99.90;;;;;;4975128;28;20350;-75
2022/10/09 13:05:53;;;;;;;;;;;13.40;99.90;;;;;;4974798;28;19910;-77
2022/10/09 13:08:27;;;;;;;;;;;13.30;99.90;;;;;;4975382;28;19910;-79
2022/10/09 13:10:54;;;;;;;;;;;13.30;99.90;;;;;;4975997;28;19910;-79
2022/10/09 13:13:24;;;;;;;;;;;13.20;99.90;;;;;;5008664;28;21035;-77
2022/10/09 13:15:58;;;;;;;;;;;13.10;99.90;;;;;;5077335;28;19913;-75
2022/10/09 13:18:25;;;;;;;;;;;13.10;99.90;;;;;;5077009;28;19974;-75
2022/10/09 13:20:59;;;;;;;;;;;13.00;99.90;;;;;;5076463;28;19959;-77
2022/10/09 13:23:33;;;;;;;;;;;13.00;99.90;;;;;;5058893;28;19909;-76
2022/10/09 13:26:01;;;;;;;;;;;12.90;99.90;;;;;;5076855;28;19912;-76
2022/10/09 13:28:28;;;;;;;;;;;12.90;99.90;;;;;;5055686;28;19909;-75
2022/10/09 13:30:55;;;;;;;;;;;12.80;99.90;;;;;;5073891;28;19908;-76
2022/10/09 13:33:22;;;;;;;;;;;12.80;99.90;;;;;;5073506;28;19924;-77
2022/10/09 13:35:48;;;;;;;;;;;12.80;99.90;;;;;;5073932;28;19958;-74
2022/10/09 13:38:16;;;;;;;;;;;12.70;99.90;;;;;;5073984;28;19916;-74
2022/10/09 13:40:43;;;;;;;;;;;12.80;99.90;;;;;;5073840;28;19931;-74
2022/10/09 13:43:12;;;;;;;;;;;12.70;99.90;;;;;;5073191;28;19909;-76
2022/10/09 13:45:38;;;;;;;;;;;12.70;99.90;;;;;;5073501;28;19916;-73
2022/10/09 13:48:05;;;;;;;;;;;12.70;99.90;;;;;;5073440;28;19915;-74
2022/10/09 13:50:32;;;;;;;;;;;12.70;99.90;;;;;;5073442;28;19909;-74
2022/10/09 13:52:59;;;;;;;;;;;12.80;99.90;;;;;;5072996;28;20369;-76
2022/10/09 13:55:25;;;;;;;;;;;12.70;99.90;;;;;;5055777;28;19995;-75
2022/10/09 13:57:52;;;;;;;;;;;12.80;99.90;;;;;;5073414;28;19920;-74
2022/10/09 14:00:19;;;;;;;;;;;12.80;99.90;;;;;;5072994;28;19909;-74
2022/10/09 14:02:46;;;;;;;;;;;12.80;99.90;;;;;;4980954;28;19964;-75
2022/10/09 14:05:12;;;;;;;;;;;12.80;99.90;;;;;;4971110;28;19914;-77
2022/10/09 14:07:39;;;;;;;;;;;12.80;99.90;;;;;;4971373;28;19910;-74
2022/10/09 14:10:06;;;;;;;;;;;12.90;99.90;;;;;;4971569;28;19968;-75
2022/10/09 14:12:32;;;;;;;;;;;12.90;99.90;;;;;;4971318;28;19918;-75
2022/10/09 14:14:59;;;;;;;;;;;12.90;99.90;;;;;;5038147;28;19941;-75
2022/10/09 14:17:26;;;;;;;;;;;12.90;99.90;;;;;;4971242;28;20024;-74
2022/10/09 14:19:52;;;;;;;;;;;12.90;99.90;;;;;;4970802;28;19917;-74
2022/10/09 14:22:19;;;;;;;;;;;12.90;99.90;;;;;;4971192;28;20004;-75
2022/10/09 14:24:45;;;;;;;;;;;13.00;99.90;;;;;;5045229;28;20004;-76
2022/10/09 14:27:12;;;;;;;;;;;13.00;99.90;;;;;;5072066;28;20258;-74
2022/10/09 14:29:39;;;;;;;;;;;13.00;99.90;;;;;;5072676;28;19908;-75